Terminal Aerodrome Forecast
Issued by NWS Sioux Falls, SD

Home | Current Version | Previous Version | Graphics & Text | Print | Product List | Glossary On
Versions: 1 2 3 4 5 6 7 8 9 10 11 12 13 14 15 16 17 18 19 20 21 22 23 24 25 26 27 28 29 30 31 32 33 34
000
FTUS43 KFSD 030527
TAFSUX
TAF
KSUX 030527Z 0306/0406 36025G33KT 1SM BLSN OVC015
     FM030700 35020G28KT 1 1/2SM BLSN OVC025
     FM031000 33018G25KT 3SM BLSN BKN025
     FM031500 32016G23KT P6SM BKN030
     FM031700 32015G23KT P6SM BKN050
     FM040000 29009KT P6SM BKN120=

USA.gov is the U.S. government's official web portal to all federal, state and local government web resources and services.